createdAt,value
2023-09-08T00:01:40.817Z,69.49
2023-09-08T00:04:42.691Z,69.55
2023-09-08T00:07:44.391Z,69.61
2023-09-08T00:10:46.601Z,69.67
2023-09-08T00:13:50.685Z,69.77
2023-09-08T00:16:54.928Z,69.84
2023-09-08T00:19:57.683Z,69.87
2023-09-08T00:22:59.349Z,69.93
2023-09-08T00:26:01.101Z,69.95
2023-09-08T00:29:02.943Z,69.99
2023-09-08T00:32:05.024Z,70.04
2023-09-08T00:35:07.068Z,70.09
2023-09-08T00:38:08.901Z,69.95
2023-09-08T00:41:10.561Z,70.05
2023-09-08T00:44:12.351Z,70.17
2023-09-08T00:47:14.295Z,70.07
2023-09-08T00:50:16.027Z,70.03
2023-09-08T00:53:18.258Z,70.06
2023-09-08T00:56:20.664Z,70.01
2023-09-08T00:59:22.962Z,69.93
2023-09-08T01:02:24.805Z,70.09
2023-09-08T01:05:26.908Z,70.15
2023-09-08T01:08:29.540Z,70.16
2023-09-08T01:11:32.214Z,70.18
2023-09-08T01:14:33.944Z,70.23
2023-09-08T01:17:35.574Z,70.27
2023-09-08T01:20:59.063Z,70.35
2023-09-08T01:24:22.332Z,70.36
2023-09-08T01:27:26.023Z,70.26
2023-09-08T01:30:33.033Z,70.19
2023-09-08T01:33:35.091Z,70.14
2023-09-08T01:36:36.678Z,70.14
2023-09-08T01:39:38.316Z,70.03
2023-09-08T01:42:40.960Z,70.00
2023-09-08T01:45:42.626Z,70.03
2023-09-08T01:48:45.165Z,70.11
2023-09-08T01:51:46.887Z,70.00
2023-09-08T01:54:48.946Z,70.05
2023-09-08T01:57:50.658Z,70.07
2023-09-08T02:00:52.748Z,70.14
2023-09-08T02:03:54.446Z,70.02
2023-09-08T02:06:56.109Z,70.22
2023-09-08T02:09:57.741Z,70.36
2023-09-08T02:13:20.910Z,70.73
2023-09-08T02:16:23.974Z,70.76
2023-09-08T02:19:27.730Z,70.86
2023-09-08T02:22:30.859Z,70.95
2023-09-08T02:25:34.041Z,71.03
2023-09-08T02:28:37.452Z,71.07
2023-09-08T02:31:40.787Z,71.13
2023-09-08T02:34:44.981Z,71.15
2023-09-08T02:37:48.925Z,71.26
2023-09-08T02:40:51.949Z,71.29
2023-09-08T02:43:54.979Z,71.38
2023-09-08T02:46:58.034Z,71.39
2023-09-08T02:50:01.547Z,71.46
2023-09-08T02:53:04.685Z,71.61
2023-09-08T02:56:07.758Z,71.74
2023-09-08T02:59:10.646Z,71.87
2023-09-08T03:02:14.346Z,71.91
2023-09-08T03:05:17.503Z,71.96
2023-09-08T03:08:20.558Z,72.03
2023-09-08T03:11:23.598Z,72.03
2023-09-08T03:14:26.566Z,72.05
2023-09-08T03:17:29.884Z,72.04
2023-09-08T03:20:32.859Z,72.04
2023-09-08T03:23:43.689Z,72.11
2023-09-08T03:26:46.756Z,72.03
2023-09-08T03:29:49.676Z,71.99
2023-09-08T03:32:52.643Z,72.04
2023-09-08T03:35:56.471Z,72.07
2023-09-08T03:38:59.513Z,72.06
2023-09-08T03:42:02.989Z,72.01
2023-09-08T03:45:06.300Z,71.96
2023-09-08T03:48:09.587Z,72.03
2023-09-08T03:51:12.777Z,72.02
2023-09-08T03:54:16.000Z,72.04
2023-09-08T03:57:19.030Z,72.04
2023-09-08T04:00:25.262Z,72.08
2023-09-08T04:03:28.370Z,72.14
2023-09-08T04:06:32.130Z,72.24
2023-09-08T04:09:35.240Z,72.28
2023-09-08T04:12:38.269Z,72.34
2023-09-08T04:15:41.313Z,72.41
2023-09-08T04:18:44.549Z,72.43
2023-09-08T04:21:47.575Z,72.45
2023-09-08T04:24:51.008Z,72.46
2023-09-08T04:27:54.477Z,72.51
2023-09-08T04:30:57.505Z,72.50
2023-09-08T04:34:00.841Z,72.51
2023-09-08T04:37:04.381Z,72.52
2023-09-08T04:40:08.680Z,72.62
2023-09-08T04:43:11.966Z,72.69
2023-09-08T04:46:14.995Z,72.77
2023-09-08T04:49:18.053Z,72.87
2023-09-08T04:52:22.418Z,72.96
2023-09-08T04:55:25.606Z,73.04
2023-09-08T04:58:28.638Z,73.19
2023-09-08T05:01:33.729Z,73.23
2023-09-08T05:04:38.340Z,73.35
2023-09-08T05:07:41.485Z,73.55
2023-09-08T05:10:47.626Z,73.72
2023-09-08T05:13:51.468Z,73.85
2023-09-08T05:16:57.363Z,73.97
2023-09-08T05:20:04.509Z,74.11
2023-09-08T05:23:07.668Z,74.32
2023-09-08T05:32:01.210Z,74.70
2023-09-08T05:35:05.523Z,74.70
2023-09-08T05:38:08.671Z,74.73
2023-09-08T05:41:11.856Z,74.78
2023-09-08T05:44:15.255Z,74.78
2023-09-08T05:47:18.568Z,74.70
2023-09-08T05:50:21.972Z,74.84
2023-09-08T05:53:25.587Z,75.10
2023-09-08T05:56:32.963Z,75.16
2023-09-08T05:59:36.132Z,75.35
2023-09-08T06:02:39.279Z,75.20
2023-09-08T06:05:42.561Z,75.23
2023-09-08T06:08:45.552Z,75.11
2023-09-08T06:11:48.881Z,75.01
2023-09-08T06:14:52.389Z,75.06
2023-09-08T06:17:55.626Z,74.89
2023-09-08T06:20:59.067Z,74.91
2023-09-08T06:24:06.451Z,74.99
2023-09-08T06:27:10.367Z,75.05
2023-09-08T06:30:19.401Z,75.17
2023-09-08T06:33:23.577Z,75.28
2023-09-08T06:36:36.076Z,75.48
2023-09-08T06:39:39.556Z,75.67
2023-09-08T06:42:44.894Z,75.70
2023-09-08T06:45:54.395Z,75.64
2023-09-08T06:48:58.669Z,75.95
2023-09-08T06:52:02.023Z,75.97
2023-09-08T06:55:06.342Z,76.02
2023-09-08T06:58:09.473Z,75.71
2023-09-08T07:01:12.603Z,75.42
2023-09-08T07:04:16.111Z,75.04
2023-09-08T07:07:21.661Z,74.97
2023-09-08T07:10:25.759Z,75.24
2023-09-08T07:13:29.158Z,75.08
2023-09-08T07:16:33.951Z,75.19
2023-09-08T07:19:44.966Z,74.64
2023-09-08T07:22:48.487Z,74.59
2023-09-08T07:25:51.831Z,74.45
2023-09-08T07:28:58.156Z,74.31
2023-09-08T07:32:03.935Z,74.00
2023-09-08T07:35:15.344Z,73.96
2023-09-08T07:38:22.359Z,74.15
2023-09-08T07:41:25.741Z,73.87
2023-09-08T07:44:29.974Z,73.17
2023-09-08T07:47:33.303Z,72.91
2023-09-08T07:50:39.090Z,72.69
2023-09-08T07:53:42.285Z,72.11
2023-09-08T07:56:45.485Z,71.54
2023-09-08T07:59:48.553Z,71.31
2023-09-08T08:02:55.623Z,70.87
2023-09-08T08:06:00.026Z,71.05
2023-09-08T08:09:03.694Z,71.07
2023-09-08T08:12:06.924Z,70.14
2023-09-08T08:15:11.364Z,69.63
2023-09-08T08:18:14.809Z,69.22
2023-09-08T08:21:18.038Z,68.89
2023-09-08T08:24:21.062Z,68.72
2023-09-08T08:27:24.216Z,68.90
2023-09-08T08:30:28.457Z,68.88
2023-09-08T08:33:33.269Z,68.44
2023-09-08T08:36:36.589Z,68.44
2023-09-08T08:39:40.364Z,68.10
2023-09-08T08:42:43.734Z,67.94
2023-09-08T08:45:50.199Z,67.64
2023-09-08T08:48:55.659Z,67.80
2023-09-08T08:52:09.667Z,67.69
2023-09-08T08:55:13.716Z,67.44
2023-09-08T08:58:29.811Z,67.60
2023-09-08T09:01:36.574Z,66.73
2023-09-08T09:04:40.507Z,65.45
2023-09-08T09:07:44.366Z,64.49
2023-09-08T09:10:48.077Z,63.79
2023-09-08T09:13:51.225Z,63.43
2023-09-08T09:16:57.955Z,63.21
2023-09-08T09:20:15.547Z,62.27
2023-09-08T09:23:31.754Z,62.35
2023-09-08T09:26:35.043Z,62.06
2023-09-08T09:29:48.934Z,60.92
2023-09-08T09:33:06.055Z,60.95
2023-09-08T09:36:10.436Z,60.08
2023-09-08T09:39:18.000Z,59.45
2023-09-08T09:42:22.853Z,59.68
2023-09-08T09:45:29.223Z,58.47
2023-09-08T09:48:32.468Z,58.02
2023-09-08T09:51:41.983Z,57.82
2023-09-08T09:54:47.897Z,56.98
2023-09-08T09:57:52.852Z,57.13
2023-09-08T10:00:58.052Z,56.39
2023-09-08T10:04:02.538Z,57.33
2023-09-08T10:07:05.669Z,56.76
2023-09-08T10:10:09.887Z,55.31
2023-09-08T10:13:15.122Z,54.10
2023-09-08T10:16:21.959Z,53.98
2023-09-08T10:19:25.190Z,54.65
2023-09-08T10:22:33.314Z,54.14
2023-09-08T10:25:43.530Z,53.81
2023-09-08T10:28:47.138Z,54.67
2023-09-08T10:31:50.395Z,54.62
2023-09-08T10:34:55.220Z,52.89
2023-09-08T10:38:24.989Z,52.90
2023-09-08T10:41:29.996Z,51.38
2023-09-08T10:44:33.886Z,51.08
2023-09-08T10:48:00.009Z,50.83
2023-09-08T10:51:06.194Z,51.55
2023-09-08T10:54:09.420Z,49.96
2023-09-08T10:57:17.686Z,49.44
2023-09-08T11:00:21.792Z,49.00
2023-09-08T11:03:43.363Z,49.47
2023-09-08T11:06:46.478Z,48.27
2023-09-08T11:09:49.472Z,48.36
2023-09-08T11:12:52.793Z,47.44
2023-09-08T11:15:56.819Z,47.13
2023-09-08T11:19:00.013Z,47.51
2023-09-08T11:22:03.665Z,46.05
2023-09-08T11:25:12.804Z,45.52
2023-09-08T11:35:58.510Z,45.10
2023-09-08T11:39:01.009Z,44.82
2023-09-08T11:42:03.241Z,45.90
2023-09-08T11:45:05.556Z,45.24
2023-09-08T11:48:07.363Z,44.60
2023-09-08T11:51:09.514Z,43.65
2023-09-08T11:54:11.841Z,44.85
2023-09-08T11:57:14.176Z,45.26
2023-09-08T12:00:18.496Z,44.34
2023-09-08T12:03:20.336Z,43.05
2023-09-08T12:06:27.869Z,43.41
2023-09-08T12:09:29.738Z,42.67
2023-09-08T12:12:31.408Z,43.09
2023-09-08T12:15:35.744Z,43.91
2023-09-08T12:18:39.636Z,43.90
2023-09-08T12:21:58.312Z,43.92
2023-09-08T12:25:02.469Z,43.99
2023-09-08T12:28:04.973Z,45.44
2023-09-08T12:31:13.131Z,45.54
2023-09-08T12:34:15.837Z,46.20
2023-09-08T12:37:25.666Z,44.41
2023-09-08T12:40:30.691Z,44.92
2023-09-08T12:43:32.517Z,45.60
2023-09-08T12:46:36.007Z,44.18
2023-09-08T12:49:37.734Z,44.57
2023-09-08T12:52:39.892Z,45.20
2023-09-08T12:55:41.655Z,44.68
2023-09-08T12:58:43.415Z,45.10
2023-09-08T13:01:45.234Z,45.48
2023-09-08T13:04:49.055Z,46.33
2023-09-08T13:07:50.786Z,45.67
2023-09-08T13:10:53.114Z,46.21
2023-09-08T13:13:54.834Z,46.19
2023-09-08T13:16:56.658Z,47.14
2023-09-08T13:19:58.307Z,46.87
2023-09-08T13:23:00.115Z,47.07
2023-09-08T13:26:01.794Z,47.16
2023-09-08T13:29:03.801Z,47.14
2023-09-08T13:32:06.115Z,46.68
2023-09-08T13:35:08.140Z,46.97
2023-09-08T13:38:09.732Z,46.52
2023-09-08T13:41:11.506Z,46.92
2023-09-08T13:44:13.306Z,48.43
2023-09-08T13:47:15.664Z,48.02
2023-09-08T13:50:24.562Z,47.63
2023-09-08T13:53:41.738Z,48.46
2023-09-08T14:00:04.782Z,50.34
2023-09-08T14:03:15.556Z,48.62
2023-09-08T14:06:21.898Z,48.57
2023-09-08T14:12:36.033Z,48.16
2023-09-08T14:15:38.241Z,48.20
2023-09-08T14:18:40.736Z,48.23
2023-09-08T14:21:42.447Z,49.09
2023-09-08T14:24:44.135Z,48.92
2023-09-08T14:27:45.912Z,48.07
2023-09-08T14:30:47.637Z,47.79
2023-09-08T14:33:49.646Z,48.22
2023-09-08T14:36:51.386Z,48.97
2023-09-08T14:39:53.025Z,48.82
2023-09-08T14:42:55.064Z,49.39
2023-09-08T14:45:59.768Z,49.47
2023-09-08T14:49:02.823Z,49.34
2023-09-08T14:52:04.586Z,49.26
2023-09-08T14:55:06.520Z,49.14
2023-09-08T14:58:08.114Z,49.53
2023-09-08T15:01:10.397Z,49.78
2023-09-08T15:04:12.298Z,50.59
2023-09-08T15:07:13.916Z,50.35
2023-09-08T15:10:16.053Z,50.45
2023-09-08T15:13:18.002Z,51.24
2023-09-08T15:16:19.608Z,51.76
2023-09-08T15:19:21.293Z,51.54
2023-09-08T15:22:23.330Z,51.63
2023-09-08T15:25:24.957Z,52.52
2023-09-08T15:28:26.594Z,52.47
2023-09-08T15:31:28.389Z,53.27
2023-09-08T15:34:30.052Z,52.87
2023-09-08T15:37:31.736Z,52.41
2023-09-08T15:40:33.319Z,52.68
2023-09-08T15:43:38.864Z,52.58
2023-09-08T15:46:41.467Z,52.86
2023-09-08T15:49:43.244Z,53.43
2023-09-08T15:52:44.881Z,53.43
2023-09-08T15:55:46.668Z,53.83
2023-09-08T15:58:48.369Z,54.27
2023-09-08T16:01:50.259Z,54.83
2023-09-08T16:04:52.046Z,54.54
2023-09-08T16:07:53.712Z,55.22
2023-09-08T16:10:55.879Z,54.78
2023-09-08T16:13:57.466Z,55.33
2023-09-08T16:16:59.064Z,55.17
2023-09-08T16:20:00.968Z,56.01
2023-09-08T16:23:03.897Z,56.96
2023-09-08T16:26:05.587Z,56.44
2023-09-08T16:29:07.349Z,57.21
2023-09-08T16:32:11.160Z,57.30
2023-09-08T16:35:13.376Z,57.77
2023-09-08T16:38:15.199Z,58.38
2023-09-08T16:41:16.785Z,58.48
2023-09-08T16:44:18.408Z,58.81
2023-09-08T16:47:20.998Z,58.74
2023-09-08T16:50:22.829Z,58.79
2023-09-08T16:53:24.445Z,58.92
2023-09-08T16:56:26.141Z,59.21
2023-09-08T16:59:27.911Z,59.42
2023-09-08T17:02:29.988Z,59.67
2023-09-08T17:05:31.721Z,59.73
2023-09-08T17:08:33.564Z,60.04
2023-09-08T17:11:40.597Z,60.02
2023-09-08T17:14:42.390Z,59.72
2023-09-08T17:17:44.384Z,60.21
2023-09-08T17:20:46.546Z,60.56
2023-09-08T17:23:48.241Z,60.77
2023-09-08T17:26:49.904Z,60.87
2023-09-08T17:29:51.631Z,61.02
2023-09-08T17:32:53.276Z,61.20
2023-09-08T17:35:54.922Z,61.17
2023-09-08T17:38:56.727Z,61.25
2023-09-08T17:47:44.958Z,61.68
2023-09-08T17:50:47.919Z,61.86
2023-09-08T17:53:50.851Z,62.04
2023-09-08T17:56:53.828Z,62.27
2023-09-08T17:59:56.736Z,62.50
2023-09-08T18:02:59.911Z,62.75
2023-09-08T18:06:05.478Z,62.99
2023-09-08T18:09:08.997Z,63.18
2023-09-08T18:12:12.247Z,63.36
2023-09-08T18:15:15.315Z,63.51
2023-09-08T18:18:20.806Z,63.59
2023-09-08T18:21:23.969Z,63.71
2023-09-08T18:24:27.137Z,63.79
2023-09-08T18:27:31.169Z,63.84
2023-09-08T18:30:34.736Z,63.95
2023-09-08T18:33:38.207Z,64.02
2023-09-08T18:36:41.780Z,64.07
2023-09-08T18:39:47.604Z,64.20
2023-09-08T18:42:50.700Z,64.27
2023-09-08T18:45:54.194Z,64.36
2023-09-08T18:48:57.253Z,64.53
2023-09-08T18:52:00.170Z,64.65
2023-09-08T18:55:05.029Z,64.74
2023-09-08T18:58:09.019Z,64.82
2023-09-08T19:01:12.077Z,64.80
2023-09-08T19:04:15.083Z,64.92
2023-09-08T19:07:18.145Z,64.95
2023-09-08T19:10:21.223Z,65.10
2023-09-08T19:13:24.167Z,65.25
2023-09-08T19:16:27.162Z,65.20
2023-09-08T19:19:30.214Z,65.33
2023-09-08T19:22:33.206Z,65.41
2023-09-08T19:25:40.224Z,65.33
2023-09-08T19:28:43.223Z,65.42
2023-09-08T19:31:46.196Z,65.50
2023-09-08T19:34:49.153Z,65.54
2023-09-08T19:37:52.159Z,65.55
2023-09-08T19:41:03.625Z,65.60
2023-09-08T19:44:07.492Z,65.63
2023-09-08T19:47:10.608Z,65.42
2023-09-08T19:50:13.629Z,65.43
2023-09-08T19:53:17.169Z,65.24
2023-09-08T19:56:20.264Z,65.31
2023-09-08T19:59:23.335Z,65.36
2023-09-08T20:02:26.283Z,65.42
2023-09-08T20:05:29.263Z,65.57
2023-09-08T20:08:32.374Z,65.60
2023-09-08T20:11:35.400Z,65.60
2023-09-08T20:14:38.273Z,65.54
2023-09-08T20:17:41.778Z,65.57
2023-09-08T20:20:44.940Z,65.62
2023-09-08T20:23:47.940Z,65.66
2023-09-08T20:26:51.097Z,65.67
2023-09-08T20:29:57.606Z,65.69
2023-09-08T20:33:00.883Z,65.71
2023-09-08T20:36:04.094Z,65.76
2023-09-08T20:39:07.372Z,65.82
2023-09-08T20:42:12.672Z,66.00
2023-09-08T20:45:18.639Z,66.06
2023-09-08T20:48:22.822Z,66.04
2023-09-08T20:51:25.784Z,65.98
2023-09-08T20:54:30.121Z,66.02
2023-09-08T20:57:34.038Z,66.19
2023-09-08T21:00:40.619Z,66.21
2023-09-08T21:03:43.704Z,66.29
2023-09-08T21:06:47.090Z,66.31
2023-09-08T21:09:50.396Z,66.37
2023-09-08T21:12:53.782Z,66.48
2023-09-08T21:15:58.074Z,66.53
2023-09-08T21:19:01.887Z,66.54
2023-09-08T21:22:05.867Z,66.58
2023-09-08T21:25:11.979Z,66.63
2023-09-08T21:28:16.674Z,66.71
2023-09-08T21:31:20.452Z,66.78
2023-09-08T21:34:26.484Z,66.79
2023-09-08T21:37:29.528Z,66.79
2023-09-08T21:40:32.626Z,66.86
2023-09-08T21:43:35.885Z,66.90
2023-09-08T21:46:39.073Z,66.90
2023-09-08T21:49:42.195Z,66.97
2023-09-08T21:52:45.415Z,67.03
2023-09-08T21:55:48.381Z,67.10
2023-09-08T21:58:51.284Z,67.07
2023-09-08T22:01:54.280Z,67.05
2023-09-08T22:04:57.431Z,67.12
2023-09-08T22:08:00.754Z,67.17
2023-09-08T22:11:06.158Z,67.30
2023-09-08T22:14:09.639Z,67.33
2023-09-08T22:17:12.611Z,67.39
2023-09-08T22:20:16.832Z,67.50
2023-09-08T22:23:19.744Z,67.56
2023-09-08T22:26:23.734Z,67.62
2023-09-08T22:29:26.847Z,67.65
2023-09-08T22:32:29.807Z,67.66
2023-09-08T22:35:32.828Z,67.71
2023-09-08T22:38:36.038Z,67.84
2023-09-08T22:41:39.024Z,67.84
2023-09-08T22:44:42.024Z,67.84
2023-09-08T22:47:45.157Z,67.86
2023-09-08T22:50:48.753Z,67.90
2023-09-08T22:53:51.787Z,67.81
2023-09-08T22:56:54.695Z,67.86
2023-09-08T22:59:57.864Z,67.91
2023-09-08T23:03:01.007Z,67.98
2023-09-08T23:06:04.527Z,68.07
2023-09-08T23:09:07.734Z,68.01
2023-09-08T23:12:11.368Z,68.00
2023-09-08T23:15:14.711Z,68.06
2023-09-08T23:18:18.194Z,68.11
2023-09-08T23:21:21.217Z,68.10
2023-09-08T23:24:24.337Z,68.16
2023-09-08T23:27:27.340Z,68.25
2023-09-08T23:30:30.336Z,68.33
2023-09-08T23:33:33.534Z,68.42
2023-09-08T23:36:36.493Z,68.51
2023-09-08T23:39:39.426Z,68.54
2023-09-08T23:42:42.796Z,68.57
2023-09-08T23:45:46.398Z,68.56
2023-09-08T23:48:49.580Z,68.49
2023-09-08T23:51:53.056Z,68.51
2023-09-08T23:54:55.981Z,68.58
2023-09-08T23:57:58.934Z,68.57
